createdAt,value
2018-08-07T00:00:23.671Z,97742.55
2018-08-07T00:02:53.624Z,97739.19
2018-08-07T00:05:23.501Z,97733.51
2018-08-07T00:07:54.911Z,97730.45
2018-08-07T00:10:27.051Z,97735.66
2018-08-07T00:12:56.819Z,97734.53
2018-08-07T00:15:28.580Z,97737.41
2018-08-07T00:17:58.382Z,97742.80
2018-08-07T00:20:28.125Z,97741.05
2018-08-07T00:22:57.875Z,97730.47
2018-08-07T00:25:27.660Z,97731.77
2018-08-07T00:27:57.417Z,97734.77
2018-08-07T00:30:27.124Z,97733.03
2018-08-07T00:32:56.932Z,97726.27
2018-08-07T00:35:26.748Z,97726.16
2018-08-07T00:37:56.567Z,97720.19
2018-08-07T00:40:26.308Z,97717.98
2018-08-07T00:42:56.106Z,97718.96
2018-08-07T00:45:25.886Z,97715.06
2018-08-07T00:47:55.657Z,97716.70
2018-08-07T00:50:25.389Z,97712.52
2018-08-07T00:52:55.047Z,97718.00
2018-08-07T00:55:24.843Z,97716.01
2018-08-07T00:57:54.586Z,97713.58
2018-08-07T01:00:24.395Z,97708.20
2018-08-07T01:02:54.088Z,97708.61
2018-08-07T01:05:23.782Z,97706.57
2018-08-07T01:07:53.514Z,97705.42
2018-08-07T01:10:23.282Z,97699.70
2018-08-07T01:12:53.003Z,97698.78
2018-08-07T01:15:22.752Z,97695.02
2018-08-07T01:17:52.438Z,97699.09
2018-08-07T01:20:24.002Z,97695.81
2018-08-07T01:22:54.034Z,97692.51
2018-08-07T01:25:25.191Z,97685.91
2018-08-07T01:27:54.749Z,97690.33
2018-08-07T01:30:27.756Z,97689.84
2018-08-07T01:32:57.753Z,97688.06
2018-08-07T01:35:28.786Z,97683.69
2018-08-07T01:37:58.277Z,97686.44
2018-08-07T01:40:27.789Z,97682.05
2018-08-07T01:42:57.290Z,97686.88
2018-08-07T01:45:26.754Z,97680.59
2018-08-07T01:47:56.202Z,97687.55
2018-08-07T01:50:25.647Z,97687.03
2018-08-07T01:52:55.060Z,97681.11
2018-08-07T01:55:26.812Z,97677.66
2018-08-07T01:57:56.314Z,97679.59
2018-08-07T02:00:25.892Z,97680.52
2018-08-07T02:02:55.377Z,97672.83
2018-08-07T02:05:24.875Z,97678.55
2018-08-07T02:07:54.475Z,97678.87
2018-08-07T02:10:23.991Z,97669.99
2018-08-07T02:12:53.440Z,97674.41
2018-08-07T02:15:22.880Z,97678.27
2018-08-07T02:17:52.367Z,97674.13
2018-08-07T02:20:21.896Z,97680.44
2018-08-07T02:22:51.426Z,97677.42
2018-08-07T02:25:20.971Z,97678.18
2018-08-07T02:27:50.442Z,97672.34
2018-08-07T02:30:19.653Z,97671.64
2018-08-07T02:32:49.118Z,97670.80
2018-08-07T02:35:18.871Z,97670.17
2018-08-07T02:37:48.707Z,97663.18
2018-08-07T02:40:18.434Z,97662.39
2018-08-07T02:42:47.912Z,97669.25
2018-08-07T02:45:18.678Z,97665.49
2018-08-07T02:47:48.971Z,97672.39
2018-08-07T02:50:20.483Z,97662.14
2018-08-07T02:52:50.134Z,97664.91
2018-08-07T02:55:19.599Z,97659.80
2018-08-07T02:57:49.159Z,97668.55
2018-08-07T03:00:21.422Z,97666.99
2018-08-07T03:02:51.025Z,97668.11
2018-08-07T03:05:21.284Z,97665.83
2018-08-07T03:07:51.053Z,97662.78
2018-08-07T03:10:20.570Z,97666.59
2018-08-07T03:12:50.009Z,97664.88
2018-08-07T03:15:20.511Z,97664.73
2018-08-07T03:17:50.423Z,97667.81
2018-08-07T03:20:20.052Z,97669.78
2018-08-07T03:22:49.577Z,97668.48
2018-08-07T03:25:19.284Z,97663.42
2018-08-07T03:27:48.745Z,97666.14
2018-08-07T03:30:21.158Z,97665.76
2018-08-07T03:32:50.580Z,97668.23
2018-08-07T03:35:20.071Z,97667.03
2018-08-07T03:37:49.503Z,97672.81
2018-08-07T03:40:19.948Z,97675.91
2018-08-07T03:42:49.414Z,97674.38
2018-08-07T03:45:19.890Z,97671.98
2018-08-07T03:47:49.626Z,97670.20
2018-08-07T03:50:19.118Z,97673.64
2018-08-07T03:52:48.550Z,97676.77
2018-08-07T03:55:19.353Z,97676.58
2018-08-07T03:57:49.047Z,97681.80
2018-08-07T04:00:21.198Z,97682.48
2018-08-07T04:02:50.831Z,97679.40
2018-08-07T04:05:20.417Z,97677.45
2018-08-07T04:07:49.902Z,97678.06
2018-08-07T04:10:19.962Z,97681.78
2018-08-07T04:12:49.427Z,97684.39
2018-08-07T04:15:19.658Z,97680.73
2018-08-07T04:17:49.174Z,97680.11
2018-08-07T04:20:19.628Z,97680.27
2018-08-07T04:22:49.083Z,97682.18
2018-08-07T04:25:18.536Z,97686.98
2018-08-07T04:27:48.004Z,97685.30
2018-08-07T04:30:18.760Z,97690.41
2018-08-07T04:32:48.382Z,97686.33
2018-08-07T04:35:18.421Z,97689.08
2018-08-07T04:37:47.913Z,97693.53
2018-08-07T04:40:17.363Z,97693.84
2018-08-07T04:42:46.863Z,97698.03
2018-08-07T04:45:17.550Z,97699.33
2018-08-07T04:47:47.874Z,97699.93
2018-08-07T04:50:17.393Z,97692.13
2018-08-07T04:52:46.912Z,97709.99
2018-08-07T04:55:16.375Z,97707.62
2018-08-07T04:57:46.003Z,97707.95
2018-08-07T05:00:17.231Z,97703.68
2018-08-07T05:02:47.492Z,97707.91
2018-08-07T05:05:17.266Z,97708.63
2018-08-07T05:07:46.870Z,97709.84
2018-08-07T05:10:17.860Z,97705.45
2018-08-07T05:12:47.861Z,97702.14
2018-08-07T05:15:17.648Z,97698.59
2018-08-07T05:17:48.299Z,97704.55
2018-08-07T05:20:17.796Z,97701.77
2018-08-07T05:22:47.301Z,97699.73
2018-08-07T05:25:16.790Z,97698.68
2018-08-07T05:27:46.317Z,97700.97
2018-08-07T05:30:17.152Z,97699.98
2018-08-07T05:32:46.641Z,97698.62
2018-08-07T05:35:16.559Z,97694.94
2018-08-07T05:37:46.066Z,97695.09
2018-08-07T05:40:15.497Z,97702.17
2018-08-07T05:42:44.986Z,97705.69
2018-08-07T05:45:17.249Z,97696.27
2018-08-07T05:47:46.747Z,97700.67
2018-08-07T05:50:17.244Z,97697.08
2018-08-07T05:52:46.681Z,97692.55
2018-08-07T05:55:16.352Z,97701.69
2018-08-07T05:57:45.929Z,97703.28
2018-08-07T06:00:17.911Z,97706.63
2018-08-07T06:02:48.393Z,97707.52
2018-08-07T06:05:18.210Z,97702.73
2018-08-07T06:07:48.334Z,97705.48
2018-08-07T06:10:17.884Z,97702.11
2018-08-07T06:12:47.434Z,97700.20
2018-08-07T06:15:17.978Z,97697.73
2018-08-07T06:17:48.406Z,97701.02
2018-08-07T06:20:17.969Z,97699.37
2018-08-07T06:22:47.511Z,97702.71
2018-08-07T06:25:16.976Z,97699.91
2018-08-07T06:27:46.498Z,97702.93
2018-08-07T06:30:19.384Z,97696.44
2018-08-07T06:32:50.202Z,97699.30
2018-08-07T06:35:20.229Z,97707.92
2018-08-07T06:37:49.745Z,97697.77
2018-08-07T06:40:19.322Z,97699.39
2018-08-07T06:42:48.835Z,97703.73
2018-08-07T06:45:18.962Z,97695.41
2018-08-07T06:47:48.543Z,97695.98
2018-08-07T06:50:20.187Z,97697.42
2018-08-07T06:52:50.667Z,97696.21
2018-08-07T06:55:20.362Z,97686.72
2018-08-07T06:57:49.887Z,97681.70
2018-08-07T07:00:24.980Z,97675.53
2018-08-07T07:02:55.398Z,97672.35
2018-08-07T07:05:25.067Z,97681.38
2018-08-07T07:07:54.626Z,97677.24
2018-08-07T07:10:24.115Z,97683.52
2018-08-07T07:12:53.639Z,97679.03
2018-08-07T07:15:23.132Z,97671.84
2018-08-07T07:17:52.335Z,97672.44
2018-08-07T07:20:21.559Z,97670.42
2018-08-07T07:22:51.103Z,97675.73
2018-08-07T07:25:20.552Z,97675.56
2018-08-07T07:27:50.044Z,97678.36
2018-08-07T07:30:21.071Z,97672.65
2018-08-07T07:32:52.807Z,97672.97
2018-08-07T07:35:22.392Z,97673.72
2018-08-07T07:37:52.158Z,97670.53
2018-08-07T07:40:21.646Z,97673.01
2018-08-07T07:42:51.122Z,97672.85
2018-08-07T07:45:21.149Z,97676.24
2018-08-07T07:47:50.659Z,97677.55
2018-08-07T07:50:21.323Z,97675.41
2018-08-07T07:52:50.802Z,97679.13
2018-08-07T07:55:20.795Z,97674.69
2018-08-07T07:57:50.263Z,97674.45
2018-08-07T08:00:27.847Z,97676.58
2018-08-07T08:02:57.295Z,97676.47
2018-08-07T08:05:27.379Z,97675.39
2018-08-07T08:07:57.021Z,97674.22
2018-08-07T08:10:26.571Z,97673.73
2018-08-07T08:12:56.064Z,97671.61
2018-08-07T08:15:25.543Z,97669.28
2018-08-07T08:19:24.028Z,97667.72
2018-08-07T08:21:53.508Z,97673.17
2018-08-07T08:24:23.015Z,97661.89
2018-08-07T08:26:52.506Z,97665.70
2018-08-07T08:29:22.170Z,97658.33
2018-08-07T08:31:51.485Z,97662.79
2018-08-07T08:34:20.961Z,97661.39
2018-08-07T08:36:50.646Z,97666.73
2018-08-07T08:39:20.126Z,97662.06
2018-08-07T08:41:49.663Z,97658.05
2018-08-07T08:44:19.111Z,97654.55
2018-08-07T08:46:48.864Z,97658.73
2018-08-07T08:49:18.373Z,97647.91
2018-08-07T08:51:47.870Z,97655.58
2018-08-07T08:54:17.385Z,97649.23
2018-08-07T08:56:47.036Z,97654.37
2018-08-07T08:59:16.526Z,97660.66
2018-08-07T09:01:46.038Z,97649.34
2018-08-07T09:04:15.511Z,97643.61
2018-08-07T09:06:45.079Z,97643.13
2018-08-07T09:09:14.868Z,97641.34
2018-08-07T09:11:44.383Z,97643.33
2018-08-07T09:14:13.907Z,97634.30
2018-08-07T09:16:43.364Z,97640.14
2018-08-07T09:19:12.897Z,97627.78
2018-08-07T09:21:42.356Z,97631.74
2018-08-07T09:24:11.860Z,97622.40
2018-08-07T09:26:41.375Z,97616.32
2018-08-07T09:29:11.042Z,97617.39
2018-08-07T09:31:40.462Z,97617.24
2018-08-07T09:34:09.996Z,97619.73
2018-08-07T09:36:39.454Z,97615.30
2018-08-07T09:39:11.689Z,97607.70
2018-08-07T09:41:41.254Z,97609.83
2018-08-07T09:44:10.860Z,97608.20
2018-08-07T09:46:40.640Z,97600.99
2018-08-07T09:49:10.194Z,97605.72
2018-08-07T09:51:39.702Z,97598.97
2018-08-07T09:54:09.156Z,97599.70
2018-08-07T09:56:38.671Z,97595.52
2018-08-07T09:59:08.179Z,97599.22
2018-08-07T10:01:42.354Z,97586.90
2018-08-07T10:04:12.000Z,97589.23
2018-08-07T10:06:41.502Z,97589.33
2018-08-07T10:09:11.195Z,97584.40
2018-08-07T10:11:40.726Z,97587.64
2018-08-07T10:14:10.191Z,97579.78
2018-08-07T10:16:39.676Z,97579.35
2018-08-07T10:19:09.175Z,97575.19
2018-08-07T10:21:38.674Z,97574.18
2018-08-07T10:24:08.202Z,97569.88
2018-08-07T10:26:37.665Z,97564.06
2018-08-07T10:29:07.275Z,97562.41
2018-08-07T10:31:36.762Z,97565.05
2018-08-07T10:34:06.329Z,97551.41
2018-08-07T10:36:35.888Z,97554.89
2018-08-07T10:39:08.559Z,97550.01
2018-08-07T10:41:38.347Z,97553.34
2018-08-07T10:44:07.910Z,97548.54
2018-08-07T10:46:37.358Z,97545.35
2018-08-07T10:49:06.884Z,97542.27
2018-08-07T10:51:36.418Z,97546.65
2018-08-07T10:54:05.971Z,97546.05
2018-08-07T10:56:35.514Z,97547.25
2018-08-07T10:59:05.245Z,97549.81
2018-08-07T11:01:34.974Z,97542.20
2018-08-07T11:04:04.615Z,97537.82
2018-08-07T11:06:34.227Z,97542.30
2018-08-07T11:09:03.779Z,97541.48
2018-08-07T11:11:33.284Z,97540.97
2018-08-07T11:14:02.799Z,97534.85
2018-08-07T11:16:32.294Z,97534.20
2018-08-07T11:19:01.792Z,97526.40
2018-08-07T11:21:31.331Z,97519.44
2018-08-07T11:24:00.837Z,97516.45
2018-08-07T11:26:30.312Z,97514.92
2018-08-07T11:28:59.760Z,97510.63
2018-08-07T11:31:29.320Z,97512.45
2018-08-07T11:33:58.824Z,97509.02
2018-08-07T11:36:28.579Z,97504.51
2018-08-07T11:38:58.118Z,97506.75
2018-08-07T11:41:27.717Z,97503.33
2018-08-07T11:43:57.148Z,97503.42
2018-08-07T11:46:26.661Z,97498.27
2018-08-07T11:48:56.145Z,97501.63
2018-08-07T11:51:25.676Z,97490.95
2018-08-07T11:53:55.115Z,97498.32
2018-08-07T11:56:24.740Z,97501.69
2018-08-07T11:58:54.111Z,97494.87
2018-08-07T12:01:23.713Z,97495.33
2018-08-07T12:03:53.528Z,97491.59
2018-08-07T12:06:23.112Z,97488.22
2018-08-07T12:08:52.726Z,97494.81
2018-08-07T12:11:22.246Z,97488.05
2018-08-07T12:13:51.782Z,97483.27
2018-08-07T12:16:21.259Z,97472.85
2018-08-07T12:18:50.734Z,97466.98
2018-08-07T12:21:20.157Z,97475.34
2018-08-07T12:23:49.660Z,97476.67
2018-08-07T12:26:19.207Z,97471.05
2018-08-07T12:28:48.635Z,97465.97
2018-08-07T12:31:18.363Z,97466.15
2018-08-07T12:33:47.883Z,97460.67
2018-08-07T12:36:17.412Z,97453.16
2018-08-07T12:43:27.635Z,97454.69
2018-08-07T12:45:56.835Z,97444.55
2018-08-07T12:48:26.368Z,97448.70
2018-08-07T12:50:55.984Z,97446.85
2018-08-07T12:53:25.523Z,97443.95
2018-08-07T12:55:54.997Z,97445.55
2018-08-07T12:58:24.559Z,97432.14
2018-08-07T13:00:54.022Z,97438.27
2018-08-07T13:03:23.500Z,97437.16
2018-08-07T13:05:52.974Z,97435.42
2018-08-07T13:08:22.420Z,97426.72
2018-08-07T13:10:51.927Z,97428.58
2018-08-07T13:13:21.436Z,97428.19
2018-08-07T13:15:50.982Z,97426.51
2018-08-07T13:18:20.503Z,97421.48
2018-08-07T13:20:49.794Z,97411.53
2018-08-07T13:23:19.293Z,97395.88
2018-08-07T13:25:48.797Z,97410.29
2018-08-07T13:28:18.225Z,97416.77
2018-08-07T13:30:47.690Z,97407.94
2018-08-07T13:33:17.174Z,97396.80
2018-08-07T13:35:46.659Z,97398.81
2018-08-07T13:38:16.190Z,97395.44
2018-08-07T13:40:45.653Z,97387.58
2018-08-07T13:43:15.102Z,97390.93
2018-08-07T13:45:44.639Z,97395.23
2018-08-07T13:48:14.135Z,97397.68
2018-08-07T13:50:43.572Z,97399.19
2018-08-07T13:53:13.045Z,97399.08
2018-08-07T13:55:42.602Z,97401.41
2018-08-07T13:58:12.043Z,97401.27
2018-08-07T14:00:41.515Z,97406.31
2018-08-07T14:03:11.005Z,97409.77
2018-08-07T14:05:40.470Z,97407.66
2018-08-07T14:08:09.935Z,97406.39
2018-08-07T14:10:39.465Z,97399.28
2018-08-07T14:13:08.971Z,97396.54
2018-08-07T14:15:38.554Z,97396.25
2018-08-07T14:18:08.067Z,97392.87
2018-08-07T14:20:37.535Z,97397.15
2018-08-07T14:23:07.355Z,97389.55
2018-08-07T14:25:36.847Z,97396.02
2018-08-07T14:28:06.519Z,97398.74
2018-08-07T14:30:36.021Z,97403.67
2018-08-07T14:33:05.543Z,97404.02
2018-08-07T14:35:35.098Z,97395.45
2018-08-07T14:38:04.631Z,97390.80
2018-08-07T14:40:34.135Z,97389.17
2018-08-07T14:43:03.619Z,97390.12
2018-08-07T14:45:33.100Z,97388.88
2018-08-07T14:48:02.616Z,97388.70
2018-08-07T14:50:32.059Z,97396.20
2018-08-07T14:53:01.532Z,97401.02
2018-08-07T14:55:31.012Z,97404.09
2018-08-07T14:58:00.483Z,97402.47
2018-08-07T15:00:30.877Z,97419.41
2018-08-07T15:03:00.307Z,97417.42
2018-08-07T15:05:29.760Z,97411.45
2018-08-07T15:07:59.226Z,97424.28
2018-08-07T15:10:28.920Z,97423.02
2018-08-07T15:12:58.415Z,97413.48
2018-08-07T15:15:31.909Z,97411.48
2018-08-07T15:18:01.392Z,97398.00
2018-08-07T15:20:31.786Z,97401.56
2018-08-07T15:23:01.239Z,97395.45
2018-08-07T15:25:30.707Z,97392.86
2018-08-07T15:28:00.283Z,97395.55
2018-08-07T15:30:29.827Z,97391.80
2018-08-07T15:32:59.307Z,97395.29
2018-08-07T15:35:29.942Z,97391.89
2018-08-07T15:37:59.437Z,97392.48
2018-08-07T15:40:28.911Z,97393.60
2018-08-07T15:42:58.335Z,97387.06
2018-08-07T15:45:27.883Z,97384.09
2018-08-07T15:47:57.404Z,97327.11
2018-08-07T15:50:26.844Z,97386.72
2018-08-07T15:52:56.617Z,97383.28
2018-08-07T15:55:27.406Z,97378.06
2018-08-07T15:57:56.870Z,97372.31
2018-08-07T16:00:31.779Z,97374.62
2018-08-07T16:03:03.484Z,97361.45
2018-08-07T16:05:32.998Z,97347.87
2018-08-07T16:08:02.586Z,97344.33
2018-08-07T16:10:32.096Z,97340.41
2018-08-07T16:13:01.651Z,97355.42
2018-08-07T16:15:31.149Z,97368.88
2018-08-07T16:18:00.567Z,97384.56
2018-08-07T16:20:30.051Z,97383.75
2018-08-07T16:22:59.535Z,97397.95
2018-08-07T16:25:28.971Z,97398.92
2018-08-07T16:27:58.432Z,97412.36
2018-08-07T16:30:28.336Z,97404.03
2018-08-07T16:32:57.757Z,97402.22
2018-08-07T16:35:27.302Z,97406.82
2018-08-07T16:37:56.686Z,97406.38
2018-08-07T16:40:26.368Z,97418.02
2018-08-07T16:42:56.042Z,97426.91
2018-08-07T16:45:25.980Z,97441.25
2018-08-07T16:47:55.469Z,97469.40
2018-08-07T16:50:26.988Z,97484.95
2018-08-07T16:52:57.379Z,97473.03
2018-08-07T16:55:28.584Z,97471.83
2018-08-07T16:57:58.097Z,97463.16
2018-08-07T17:00:27.535Z,97461.27
2018-08-07T17:02:57.011Z,97462.59
2018-08-07T17:05:26.611Z,97463.44
2018-08-07T17:07:56.078Z,97480.52
2018-08-07T17:10:27.331Z,97482.73
2018-08-07T17:12:56.849Z,97459.86
2018-08-07T17:15:26.303Z,97440.56
2018-08-07T17:17:55.774Z,97444.69
2018-08-07T17:20:25.218Z,97454.88
2018-08-07T17:22:54.851Z,97479.51
2018-08-07T17:25:24.741Z,97503.75
2018-08-07T17:27:54.269Z,97516.19
2018-08-07T17:30:26.576Z,97514.73
2018-08-07T17:32:56.183Z,97514.45
2018-08-07T17:35:26.731Z,97506.16
2018-08-07T17:37:58.395Z,97507.38
2018-08-07T17:40:29.032Z,97515.33
2018-08-07T17:42:58.744Z,97499.20
2018-08-07T17:45:28.224Z,97503.09
2018-08-07T17:47:57.697Z,97500.55
2018-08-07T17:50:27.945Z,97495.63
2018-08-07T17:53:00.037Z,97482.86
2018-08-07T17:55:29.655Z,97466.69
2018-08-07T17:58:00.632Z,97481.53
2018-08-07T18:00:30.219Z,97493.31
2018-08-07T18:02:59.674Z,97496.53
2018-08-07T18:05:29.550Z,97493.25
2018-08-07T18:07:59.123Z,97495.90
2018-08-07T18:10:28.644Z,97505.45
2018-08-07T18:12:58.224Z,97506.65
2018-08-07T18:15:27.989Z,97511.06
2018-08-07T18:17:57.471Z,97509.98
2018-08-07T18:20:27.997Z,97528.15
2018-08-07T18:22:58.190Z,97522.45
2018-08-07T18:25:28.463Z,97521.33
2018-08-07T18:27:58.081Z,97525.05
2018-08-07T18:30:27.696Z,97522.55
2018-08-07T18:32:57.277Z,97513.84
2018-08-07T18:35:27.472Z,97500.59
2018-08-07T18:37:57.254Z,97495.09
2018-08-07T18:40:27.056Z,97492.72
2018-08-07T18:42:56.734Z,97488.41
2018-08-07T18:45:26.575Z,97483.30
2018-08-07T18:47:56.479Z,97475.63
2018-08-07T18:50:26.833Z,97476.84
2018-08-07T18:52:58.034Z,97495.19
2018-08-07T18:55:29.674Z,97470.33
2018-08-07T18:58:01.775Z,97475.05
2018-08-07T19:00:34.172Z,97473.39
2018-08-07T19:03:06.023Z,97478.17
2018-08-07T19:05:37.891Z,97476.20
2018-08-07T19:08:09.886Z,97462.56
2018-08-07T19:10:41.920Z,97469.59
2018-08-07T19:13:12.673Z,97465.70
2018-08-07T19:15:43.355Z,97472.16
2018-08-07T19:18:14.908Z,97476.46
2018-08-07T19:20:46.993Z,97484.05
2018-08-07T19:23:18.813Z,97493.73
2018-08-07T19:25:50.521Z,97488.69
2018-08-07T19:28:22.631Z,97486.05
2018-08-07T19:30:54.813Z,97486.22
2018-08-07T19:33:26.975Z,97474.27
2018-08-07T19:35:58.827Z,97470.13
2018-08-07T19:38:30.268Z,97479.25
2018-08-07T19:41:02.405Z,97489.24
2018-08-07T19:43:33.352Z,97479.30
2018-08-07T19:46:04.206Z,97480.34
2018-08-07T19:48:36.475Z,97482.45
2018-08-07T19:51:08.853Z,97474.17
2018-08-07T19:53:40.921Z,97481.50
2018-08-07T19:56:44.900Z,97470.97
2018-08-07T19:59:16.985Z,97456.42
2018-08-07T20:01:49.151Z,97455.43
2018-08-07T20:04:21.328Z,97449.25
2018-08-07T20:06:54.009Z,97447.27
2018-08-07T20:09:25.925Z,97442.31
2018-08-07T20:11:57.798Z,97438.07
2018-08-07T20:14:29.961Z,97448.06
2018-08-07T20:17:02.306Z,97452.19
2018-08-07T20:19:34.513Z,97467.20
2018-08-07T20:22:07.435Z,97460.73
2018-08-07T20:24:39.485Z,97465.80
2018-08-07T20:27:11.560Z,97465.92
2018-08-07T20:29:43.199Z,97470.45
2018-08-07T20:32:15.132Z,97478.07
2018-08-07T20:34:46.321Z,97472.50
2018-08-07T20:37:16.193Z,97474.95
2018-08-07T20:39:46.410Z,97482.34
2018-08-07T20:42:16.763Z,97484.31
2018-08-07T20:44:47.066Z,97475.11
2018-08-07T20:47:16.792Z,97472.78
2018-08-07T20:49:47.682Z,97476.28
2018-08-07T20:52:17.576Z,97473.48
2018-08-07T20:54:47.320Z,97463.80
2018-08-07T20:57:16.896Z,97459.11
2018-08-07T20:59:46.427Z,97459.27
2018-08-07T21:02:15.898Z,97462.05
2018-08-07T21:04:45.376Z,97479.85
2018-08-07T21:07:14.874Z,97487.06
2018-08-07T21:09:44.370Z,97491.44
2018-08-07T21:12:13.870Z,97490.14
2018-08-07T21:14:43.340Z,97480.17
2018-08-07T21:17:12.931Z,97480.17
2018-08-07T21:19:42.829Z,97470.68
2018-08-07T21:22:12.340Z,97468.63
2018-08-07T21:24:42.791Z,97459.41
2018-08-07T21:27:12.310Z,97449.05
2018-08-07T21:29:41.854Z,97450.45
2018-08-07T21:32:11.390Z,97457.21
2018-08-07T21:34:40.883Z,97460.20
2018-08-07T21:37:10.423Z,97448.52
2018-08-07T21:39:39.879Z,97445.44
2018-08-07T21:42:09.416Z,97438.84
2018-08-07T21:44:38.906Z,97432.52
2018-08-07T21:47:08.443Z,97423.56
2018-08-07T21:49:37.971Z,97424.03
2018-08-07T21:52:07.445Z,97418.31
2018-08-07T21:54:36.960Z,97418.31
2018-08-07T21:57:06.548Z,97418.92
2018-08-07T21:59:36.036Z,97411.53
2018-08-07T22:02:05.515Z,97406.45
2018-08-07T22:04:34.976Z,97401.59
2018-08-07T22:07:04.659Z,97398.74
2018-08-07T22:09:34.145Z,97392.57
2018-08-07T22:12:03.620Z,97399.23
2018-08-07T22:14:33.069Z,97395.72
2018-08-07T22:17:02.528Z,97395.02
2018-08-07T22:19:31.956Z,97393.52
2018-08-07T22:22:01.382Z,97391.66
2018-08-07T22:24:30.895Z,97398.62
2018-08-07T22:27:00.580Z,97392.70
2018-08-07T22:29:30.048Z,97394.82
2018-08-07T22:31:59.476Z,97394.36
2018-08-07T22:34:28.918Z,97392.59
2018-08-07T22:36:58.537Z,97395.59
2018-08-07T22:39:27.984Z,97395.02
2018-08-07T22:41:57.506Z,97396.61
2018-08-07T22:44:26.935Z,97380.77
2018-08-07T22:46:56.363Z,97363.06
2018-08-07T22:49:25.816Z,97355.47
2018-08-07T22:51:55.290Z,97359.45
2018-08-07T22:54:24.790Z,97359.38
2018-08-07T22:56:54.258Z,97354.99
2018-08-07T22:59:23.722Z,97350.03
2018-08-07T23:01:53.224Z,97351.16
2018-08-07T23:04:22.674Z,97341.95
2018-08-07T23:06:52.156Z,97350.44
2018-08-07T23:09:21.610Z,97353.88
2018-08-07T23:11:51.072Z,97356.30
2018-08-07T23:14:20.533Z,97352.02
2018-08-07T23:16:50.232Z,97350.32
2018-08-07T23:19:19.799Z,97357.49
2018-08-07T23:21:49.257Z,97350.89
2018-08-07T23:24:18.724Z,97348.33
2018-08-07T23:26:48.458Z,97337.16
2018-08-07T23:29:17.975Z,97339.02
2018-08-07T23:31:47.411Z,97349.88
2018-08-07T23:34:16.870Z,97355.64
2018-08-07T23:36:46.495Z,97359.84
2018-08-07T23:39:16.095Z,97350.94
2018-08-07T23:41:45.547Z,97339.22
2018-08-07T23:44:15.001Z,97333.53
2018-08-07T23:46:44.438Z,97330.27
2018-08-07T23:49:13.867Z,97336.19
2018-08-07T23:51:43.353Z,97337.61
2018-08-07T23:54:12.810Z,97334.83
2018-08-07T23:56:42.220Z,97334.72
2018-08-07T23:59:11.635Z,97335.84
